Time;durP1;ratioP1;P1;durP2;ratioP2;P2;SDS_P1;SDS_P2;PMS_P1;PMS_P2;Temp;Humidity;BMP_temperature;BMP_pressure;BME280_temperature;BME280_humidity;BME280_pressure;Samples;Min_cycle;Max_cycle;Signal;HPM_P1;HPM_P2
2022/01/02 00:00:44;;;;;;;26.60;10.40;;;;;;;;;;5034880;28;20048;-70
2022/01/02 00:03:12;;;;;;;15.27;8.70;;;;;;;;;;5034597;28;20045;-70
2022/01/02 00:05:38;;;;;;;20.50;9.57;;;;;;;;;;5035432;28;20388;-70
2022/01/02 00:08:07;;;;;;;14.97;9.10;;;;;;;;;;5037216;28;20047;-69
2022/01/02 00:10:35;;;;;;;20.07;10.33;;;;;;;;;;5036171;28;20037;-69
2022/01/02 00:13:01;;;;;;;15.97;9.00;;;;;;;;;;5052379;28;20120;-69
2022/01/02 00:15:28;;;;;;;18.43;8.83;;;;;;;;;;5022737;28;20044;-69
2022/01/02 00:17:55;;;;;;;16.67;9.13;;;;;;;;;;5034330;28;20063;-70
2022/01/02 00:20:32;;;;;;;14.13;8.37;;;;;;;;;;5039184;28;20384;-69
2022/01/02 00:23:08;;;;;;;20.03;9.33;;;;;;;;;;5038849;28;20041;-69
2022/01/02 00:25:38;;;;;;;17.10;7.97;;;;;;;;;;5035191;28;20135;-69
2022/01/02 00:28:06;;;;;;;22.43;10.53;;;;;;;;;;5041190;28;20048;-69
2022/01/02 00:30:33;;;;;;;20.83;10.20;;;;;;;;;;5034246;28;20049;-69
2022/01/02 00:33:00;;;;;;;22.90;10.23;;;;;;;;;;5035462;28;20107;-69
2022/01/02 00:35:26;;;;;;;18.73;9.70;;;;;;;;;;5035149;28;20083;-69
2022/01/02 00:37:52;;;;;;;15.87;9.10;;;;;;;;;;5036280;28;20041;-69
2022/01/02 00:40:18;;;;;;;13.13;8.90;;;;;;;;;;5034034;28;20389;-69
2022/01/02 00:42:44;;;;;;;17.97;9.13;;;;;;;;;;5034891;28;20041;-69
2022/01/02 00:45:17;;;;;;;17.50;9.47;;;;;;;;;;5037253;28;20033;-69
2022/01/02 00:47:45;;;;;;;14.13;9.32;;;;;;;;;;5038742;28;20119;-69
2022/01/02 00:50:15;;;;;;;20.57;10.07;;;;;;;;;;5036243;28;20041;-69
2022/01/02 00:52:46;;;;;;;18.00;8.70;;;;;;;;;;5041017;28;20047;-69
2022/01/02 00:55:19;;;;;;;17.33;9.57;;;;;;;;;;5050267;28;20096;-69
2022/01/02 00:57:49;;;;;;;17.65;9.07;;;;;;;;;;5038722;28;20052;-69
2022/01/02 01:00:16;;;;;;;18.23;9.67;;;;;;;;;;5038596;28;20047;-69
2022/01/02 01:02:45;;;;;;;17.97;9.20;;;;;;;;;;5041868;28;20041;-69
2022/01/02 01:05:12;;;;;;;18.70;9.13;;;;;;;;;;5050400;28;20081;-69
2022/01/02 01:07:38;;;;;;;18.47;8.33;;;;;;;;;;5036283;28;20075;-69
2022/01/02 01:10:07;;;;;;;26.23;11.13;;;;;;;;;;5040964;28;20587;-69
2022/01/02 01:12:33;;;;;;;24.57;11.20;;;;;;;;;;5039216;28;20491;-69
2022/01/02 01:15:00;;;;;;;26.87;10.80;;;;;;;;;;5038050;28;20117;-68
2022/01/02 01:17:26;;;;;;;29.60;11.20;;;;;;;;;;5036474;28;20418;-68
2022/01/02 01:19:53;;;;;;;32.03;12.83;;;;;;;;;;5039209;28;20080;-68
2022/01/02 01:22:20;;;;;;;26.77;11.73;;;;;;;;;;5036216;28;20553;-69
2022/01/02 01:24:46;;;;;;;24.47;11.23;;;;;;;;;;5039100;28;20099;-69
2022/01/02 01:27:12;;;;;;;24.40;10.83;;;;;;;;;;5039094;28;20037;-69
2022/01/02 01:29:38;;;;;;;28.13;12.17;;;;;;;;;;5034536;28;20128;-68
2022/01/02 01:32:05;;;;;;;24.97;11.30;;;;;;;;;;5037116;28;20313;-68
2022/01/02 01:34:31;;;;;;;22.63;9.43;;;;;;;;;;5036152;28;20467;-68
2022/01/02 01:36:57;;;;;;;19.67;10.40;;;;;;;;;;5035688;28;20457;-68
2022/01/02 01:39:23;;;;;;;20.83;11.20;;;;;;;;;;5040930;28;20446;-68
2022/01/02 01:41:52;;;;;;;19.77;10.17;;;;;;;;;;5040860;28;20554;-69
2022/01/02 01:46:45;;;;;;;21.57;11.17;;;;;;;;;;5040137;28;20519;-69
2022/01/02 01:49:18;;;;;;;23.47;10.20;;;;;;;;;;5038492;28;20045;-68
2022/01/02 01:51:45;;;;;;;22.83;10.45;;;;;;;;;;5053878;28;20119;-69
2022/01/02 01:54:11;;;;;;;29.30;12.33;;;;;;;;;;5036926;28;20515;-69
2022/01/02 01:56:37;;;;;;;24.80;11.13;;;;;;;;;;5024050;28;20041;-68
2022/01/02 01:59:04;;;;;;;28.97;12.53;;;;;;;;;;5023685;28;20048;-68
2022/01/02 02:01:30;;;;;;;25.43;9.80;;;;;;;;;;5029063;28;20562;-69
2022/01/02 02:03:57;;;;;;;24.97;11.00;;;;;;;;;;5029212;28;20053;-68
2022/01/02 02:06:23;;;;;;;25.37;11.33;;;;;;;;;;5030151;28;20143;-68
2022/01/02 02:08:52;;;;;;;24.60;11.33;;;;;;;;;;5029575;28;20567;-69
2022/01/02 02:11:18;;;;;;;29.60;11.40;;;;;;;;;;5031748;28;20091;-68
2022/01/02 02:13:45;;;;;;;24.20;9.90;;;;;;;;;;5039400;28;20045;-68
2022/01/02 02:16:11;;;;;;;19.37;10.53;;;;;;;;;;5029465;28;20057;-69
2022/01/02 02:18:37;;;;;;;24.47;12.30;;;;;;;;;;5013698;28;20705;-68
2022/01/02 02:21:03;;;;;;;32.47;12.13;;;;;;;;;;5029550;28;20045;-68
2022/01/02 02:23:29;;;;;;;21.30;10.30;;;;;;;;;;5030389;28;20050;-69
2022/01/02 02:25:55;;;;;;;21.97;10.40;;;;;;;;;;5029219;28;20107;-69
2022/01/02 02:28:26;;;;;;;32.57;12.73;;;;;;;;;;5029477;28;20076;-69
2022/01/02 02:30:52;;;;;;;30.97;12.93;;;;;;;;;;5029105;28;20049;-68
2022/01/02 02:33:18;;;;;;;24.43;11.87;;;;;;;;;;5030076;28;20034;-69
2022/01/02 02:35:46;;;;;;;26.70;11.93;;;;;;;;;;5029720;28;20045;-69
2022/01/02 02:38:13;;;;;;;32.00;12.27;;;;;;;;;;5029044;28;20049;-69
2022/01/02 02:40:39;;;;;;;29.37;12.73;;;;;;;;;;5028862;28;20057;-68
2022/01/02 02:43:19;;;;;;;29.23;11.67;;;;;;;;;;5028229;28;20041;-69
2022/01/02 02:51:21;;;;;;;28.30;13.57;;;;;;;;;;5028799;28;20046;-68
2022/01/02 02:53:48;;;;;;;28.43;13.60;;;;;;;;;;5030139;28;20049;-68
2022/01/02 02:56:19;;;;;;;22.17;11.07;;;;;;;;;;5028431;28;20054;-68
2022/01/02 02:58:45;;;;;;;24.47;10.70;;;;;;;;;;5028608;28;20499;-69
2022/01/02 03:01:12;;;;;;;28.07;10.93;;;;;;;;;;5028140;28;20050;-68
2022/01/02 03:03:39;;;;;;;26.20;11.03;;;;;;;;;;5028837;28;20128;-68
2022/01/02 03:06:05;;;;;;;19.93;11.00;;;;;;;;;;5028473;28;20045;-68
2022/01/02 03:08:32;;;;;;;27.67;11.57;;;;;;;;;;5028463;28;20130;-69
2022/01/02 03:10:58;;;;;;;26.83;13.07;;;;;;;;;;5028315;28;20448;-68
2022/01/02 03:13:24;;;;;;;24.07;11.60;;;;;;;;;;5028741;28;20467;-69
2022/01/02 03:15:51;;;;;;;30.00;12.30;;;;;;;;;;5028080;28;20037;-68
2022/01/02 03:18:17;;;;;;;23.87;10.90;;;;;;;;;;5028616;28;20135;-69
2022/01/02 03:20:43;;;;;;;24.57;10.33;;;;;;;;;;5029241;28;20053;-69
2022/01/02 03:23:09;;;;;;;21.30;10.07;;;;;;;;;;5028809;28;20507;-68
2022/01/02 03:25:35;;;;;;;28.43;10.57;;;;;;;;;;5029421;28;20045;-69
2022/01/02 03:28:01;;;;;;;27.27;10.73;;;;;;;;;;5029754;28;20045;-68
2022/01/02 03:30:27;;;;;;;27.50;11.50;;;;;;;;;;5028717;28;20114;-68
2022/01/02 03:32:53;;;;;;;30.53;11.20;;;;;;;;;;5028363;28;20057;-68
2022/01/02 03:35:19;;;;;;;22.37;10.80;;;;;;;;;;5028074;28;20389;-68
2022/01/02 03:37:45;;;;;;;21.17;9.30;;;;;;;;;;5029765;28;20048;-68
2022/01/02 03:40:11;;;;;;;28.87;11.23;;;;;;;;;;5027771;28;20136;-68
2022/01/02 03:42:38;;;;;;;25.60;9.00;;;;;;;;;;5029862;28;20037;-68
2022/01/02 03:45:04;;;;;;;24.73;10.30;;;;;;;;;;5027352;28;20041;-68
2022/01/02 03:47:30;;;;;;;23.27;9.57;;;;;;;;;;5028348;28;20059;-69
2022/01/02 03:49:59;;;;;;;25.43;10.83;;;;;;;;;;5028934;28;20415;-69
2022/01/02 03:52:26;;;;;;;21.77;8.50;;;;;;;;;;5027864;28;20041;-68
2022/01/02 03:54:52;;;;;;;24.50;9.97;;;;;;;;;;5027984;28;20049;-68
2022/01/02 03:57:18;;;;;;;31.17;10.80;;;;;;;;;;5010603;28;20056;-69
2022/01/02 03:59:44;;;;;;;27.80;10.50;;;;;;;;;;5028729;28;20054;-69
2022/01/02 04:02:10;;;;;;;22.23;9.20;;;;;;;;;;5027114;28;20395;-68
2022/01/02 04:04:37;;;;;;;18.67;8.00;;;;;;;;;;5023418;28;20587;-69
2022/01/02 04:07:03;;;;;;;32.77;10.27;;;;;;;;;;5027662;28;20049;-69
2022/01/02 04:09:29;;;;;;;17.83;8.73;;;;;;;;;;5028735;28;20050;-68
2022/01/02 04:11:55;;;;;;;31.83;9.10;;;;;;;;;;5028430;28;20041;-68
2022/01/02 04:14:21;;;;;;;18.50;8.93;;;;;;;;;;5029131;28;20519;-68
2022/01/02 04:16:47;;;;;;;24.20;8.63;;;;;;;;;;5027505;28;20069;-68
2022/01/02 04:19:13;;;;;;;20.53;9.00;;;;;;;;;;5026994;28;20049;-68
2022/01/02 04:21:39;;;;;;;20.63;7.53;;;;;;;;;;5027929;28;20046;-68
2022/01/02 04:24:05;;;;;;;17.33;8.27;;;;;;;;;;5029103;28;20515;-68
2022/01/02 04:26:31;;;;;;;26.13;7.23;;;;;;;;;;5031192;28;20057;-68
2022/01/02 04:28:58;;;;;;;19.53;7.10;;;;;;;;;;5014389;28;20057;-68
2022/01/02 04:31:24;;;;;;;24.07;8.87;;;;;;;;;;5031605;28;20133;-68
2022/01/02 04:33:50;;;;;;;20.80;7.43;;;;;;;;;;5029593;28;20471;-68
2022/01/02 04:36:16;;;;;;;19.03;6.63;;;;;;;;;;5030693;28;20050;-68
2022/01/02 04:38:44;;;;;;;20.80;7.90;;;;;;;;;;5031630;28;20083;-69
2022/01/02 04:41:10;;;;;;;24.50;7.80;;;;;;;;;;5031059;28;20450;-69
2022/01/02 04:43:36;;;;;;;22.37;7.57;;;;;;;;;;5030301;28;20045;-68
2022/01/02 04:46:02;;;;;;;19.60;7.30;;;;;;;;;;5030283;28;20050;-69
2022/01/02 04:48:28;;;;;;;20.27;6.93;;;;;;;;;;5030666;28;20045;-69
2022/01/02 04:50:54;;;;;;;26.97;9.40;;;;;;;;;;5031080;28;20045;-69
2022/01/02 04:53:21;;;;;;;24.87;6.30;;;;;;;;;;5029989;28;20572;-69
2022/01/02 04:55:48;;;;;;;18.17;6.73;;;;;;;;;;5029103;28;20140;-68
2022/01/02 04:58:14;;;;;;;21.20;7.20;;;;;;;;;;5029708;28;20084;-68
2022/01/02 05:00:40;;;;;;;20.90;6.60;;;;;;;;;;5028065;28;20045;-68
2022/01/02 05:03:06;;;;;;;23.37;6.53;;;;;;;;;;5028725;28;20057;-69
2022/01/02 05:05:32;;;;;;;20.07;6.63;;;;;;;;;;5030323;28;20405;-69
2022/01/02 05:07:58;;;;;;;20.77;7.10;;;;;;;;;;5027589;28;20443;-69
2022/01/02 05:10:24;;;;;;;22.77;7.47;;;;;;;;;;5024153;28;20095;-68
2022/01/02 05:12:50;;;;;;;19.87;6.33;;;;;;;;;;5025736;28;20125;-68
2022/01/02 05:15:16;;;;;;;17.00;6.43;;;;;;;;;;5041693;28;20363;-68
2022/01/02 05:17:43;;;;;;;16.90;7.00;;;;;;;;;;5028602;28;20148;-68
2022/01/02 05:20:09;;;;;;;28.60;8.37;;;;;;;;;;5023907;28;20094;-68
2022/01/02 05:22:35;;;;;;;19.10;7.00;;;;;;;;;;5028577;28;20069;-68
2022/01/02 05:25:01;;;;;;;16.93;6.73;;;;;;;;;;5024686;28;20045;-68
2022/01/02 05:27:27;;;;;;;19.47;7.30;;;;;;;;;;5017795;28;20038;-68
2022/01/02 05:29:53;;;;;;;15.90;5.63;;;;;;;;;;5023981;28;20081;-68
2022/01/02 05:32:19;;;;;;;18.63;6.57;;;;;;;;;;5021457;28;20129;-69
2022/01/02 05:34:45;;;;;;;19.87;5.47;;;;;;;;;;5025320;28;20045;-68
2022/01/02 05:37:11;;;;;;;22.47;5.60;;;;;;;;;;5027193;28;20064;-68
2022/01/02 05:39:37;;;;;;;15.50;5.77;;;;;;;;;;5025899;28;20076;-69
2022/01/02 05:42:04;;;;;;;16.93;5.70;;;;;;;;;;5023867;28;20084;-69
2022/01/02 05:44:30;;;;;;;18.73;6.50;;;;;;;;;;5027116;28;20049;-68
2022/01/02 05:46:56;;;;;;;27.90;6.47;;;;;;;;;;5028573;28;20045;-68
2022/01/02 05:49:22;;;;;;;17.97;6.03;;;;;;;;;;5029156;28;20145;-68
2022/01/02 05:51:49;;;;;;;16.50;5.37;;;;;;;;;;5029076;28;20191;-68
2022/01/02 05:54:15;;;;;;;15.97;5.60;;;;;;;;;;5024989;28;20088;-68
2022/01/02 05:56:41;;;;;;;16.63;5.73;;;;;;;;;;5029607;28;20053;-69
2022/01/02 05:59:07;;;;;;;16.23;5.53;;;;;;;;;;5029417;28;20084;-69
2022/01/02 06:01:33;;;;;;;17.50;5.13;;;;;;;;;;5029201;28;20056;-69
2022/01/02 06:04:00;;;;;;;15.13;5.10;;;;;;;;;;5029605;28;20049;-68
2022/01/02 06:06:26;;;;;;;11.07;4.80;;;;;;;;;;5030503;28;20087;-69
2022/01/02 06:08:52;;;;;;;17.33;5.27;;;;;;;;;;5028415;28;20053;-69
2022/01/02 06:11:18;;;;;;;15.07;4.80;;;;;;;;;;5030203;28;20060;-68
2022/01/02 06:13:44;;;;;;;16.17;4.97;;;;;;;;;;5029382;28;20042;-69
2022/01/02 06:16:13;;;;;;;15.20;5.40;;;;;;;;;;5028736;28;20049;-68
2022/01/02 06:18:39;;;;;;;17.43;5.33;;;;;;;;;;5028799;28;20050;-69
2022/01/02 06:21:05;;;;;;;15.90;6.03;;;;;;;;;;5028045;28;20096;-68
2022/01/02 06:23:31;;;;;;;18.37;5.17;;;;;;;;;;5028015;28;20057;-69
2022/01/02 06:25:57;;;;;;;12.30;4.90;;;;;;;;;;5028626;28;20421;-68
2022/01/02 06:28:24;;;;;;;16.13;5.20;;;;;;;;;;5029981;28;20037;-69
2022/01/02 06:30:50;;;;;;;13.40;4.47;;;;;;;;;;5029275;28;20045;-69
2022/01/02 06:33:16;;;;;;;13.90;4.60;;;;;;;;;;5027746;28;20048;-68
2022/01/02 06:35:42;;;;;;;17.77;5.90;;;;;;;;;;5028585;28;20861;-69
2022/01/02 06:38:12;;;;;;;16.60;5.17;;;;;;;;;;5028631;28;20092;-69
2022/01/02 06:40:38;;;;;;;18.90;5.60;;;;;;;;;;5028660;28;20106;-69
2022/01/02 06:43:04;;;;;;;16.90;5.40;;;;;;;;;;5011252;28;20045;-69
2022/01/02 06:45:30;;;;;;;13.67;5.10;;;;;;;;;;5029746;28;20054;-69
2022/01/02 06:47:56;;;;;;;20.63;5.23;;;;;;;;;;5028127;28;20071;-69
2022/01/02 06:50:22;;;;;;;20.87;5.60;;;;;;;;;;5028082;28;20045;-69
2022/01/02 06:52:48;;;;;;;12.90;4.77;;;;;;;;;;5011096;28;20050;-69
2022/01/02 06:55:14;;;;;;;14.00;4.57;;;;;;;;;;5024101;28;20045;-69
2022/01/02 06:57:40;;;;;;;13.47;5.03;;;;;;;;;;5027560;28;20509;-69
2022/01/02 07:00:07;;;;;;;10.80;4.30;;;;;;;;;;5026938;28;20127;-69
2022/01/02 07:02:33;;;;;;;12.37;4.83;;;;;;;;;;5028444;28;20037;-69
2022/01/02 07:05:00;;;;;;;14.17;4.97;;;;;;;;;;5029395;28;20067;-69
2022/01/02 07:07:26;;;;;;;15.30;4.40;;;;;;;;;;5028542;28;20045;-69
2022/01/02 07:09:52;;;;;;;14.83;4.83;;;;;;;;;;5028082;28;20045;-69
2022/01/02 07:12:18;;;;;;;15.53;5.53;;;;;;;;;;5027826;28;20049;-69
2022/01/02 07:14:44;;;;;;;14.00;5.43;;;;;;;;;;5026772;28;20046;-69
2022/01/02 07:17:10;;;;;;;12.60;4.03;;;;;;;;;;5027795;28;20476;-70
2022/01/02 07:19:36;;;;;;;11.90;4.27;;;;;;;;;;5026832;28;20060;-69
2022/01/02 07:22:02;;;;;;;11.00;4.60;;;;;;;;;;5027751;28;20041;-68
2022/01/02 07:24:28;;;;;;;12.23;4.87;;;;;;;;;;5027342;28;20447;-69
2022/01/02 07:26:54;;;;;;;14.87;4.33;;;;;;;;;;5028276;28;20045;-69
2022/01/02 07:29:20;;;;;;;11.87;4.77;;;;;;;;;;5025217;28;20052;-69
2022/01/02 07:31:46;;;;;;;17.60;4.90;;;;;;;;;;5028733;28;20196;-69
2022/01/02 07:34:12;;;;;;;13.67;5.00;;;;;;;;;;5027456;28;20622;-69
2022/01/02 07:36:43;;;;;;;13.47;4.60;;;;;;;;;;5026554;28;20041;-70
2022/01/02 07:39:09;;;;;;;13.00;5.17;;;;;;;;;;5026615;28;20053;-69
2022/01/02 07:41:35;;;;;;;9.60;5.00;;;;;;;;;;5026506;28;20049;-69
2022/01/02 07:44:03;;;;;;;12.50;4.33;;;;;;;;;;5026890;28;20049;-69
2022/01/02 07:46:29;;;;;;;15.63;5.53;;;;;;;;;;5027039;28;20121;-69
2022/01/02 07:48:55;;;;;;;14.67;5.07;;;;;;;;;;5027714;28;20418;-69
2022/01/02 07:51:21;;;;;;;16.83;5.83;;;;;;;;;;5028064;28;20048;-69
2022/01/02 07:53:47;;;;;;;15.80;5.37;;;;;;;;;;5027819;28;20081;-69
2022/01/02 07:56:14;;;;;;;12.97;5.30;;;;;;;;;;5026833;28;20057;-69
2022/01/02 07:58:40;;;;;;;13.37;4.80;;;;;;;;;;5028795;28;20084;-69
2022/01/02 08:01:06;;;;;;;12.60;4.57;;;;;;;;;;5031161;28;20077;-68
2022/01/02 08:03:32;;;;;;;11.37;4.80;;;;;;;;;;5010223;28;20049;-68
2022/01/02 08:05:58;;;;;;;14.33;4.80;;;;;;;;;;5051036;28;20099;-68
2022/01/02 08:08:24;;;;;;;10.10;4.17;;;;;;;;;;5050309;28;20557;-69
2022/01/02 08:10:50;;;;;;;14.87;6.13;;;;;;;;;;5050349;28;20142;-69
2022/01/02 08:13:16;;;;;;;11.20;4.63;;;;;;;;;;5050572;28;20037;-68
2022/01/02 08:15:43;;;;;;;14.57;5.67;;;;;;;;;;5050825;28;20041;-69
2022/01/02 08:18:13;;;;;;;17.00;6.07;;;;;;;;;;5041315;28;20068;-68
2022/01/02 08:20:39;;;;;;;12.87;6.17;;;;;;;;;;5038008;28;20053;-69
2022/01/02 08:23:05;;;;;;;14.87;5.83;;;;;;;;;;5035880;28;20051;-68
2022/01/02 08:25:31;;;;;;;16.87;5.40;;;;;;;;;;5051076;28;20037;-68
2022/01/02 08:27:57;;;;;;;13.23;5.00;;;;;;;;;;5046704;28;20044;-69
2022/01/02 08:30:23;;;;;;;11.33;5.77;;;;;;;;;;5023318;28;20388;-69
2022/01/02 08:32:49;;;;;;;13.27;4.93;;;;;;;;;;5028999;28;20096;-68
2022/01/02 08:35:15;;;;;;;13.80;5.60;;;;;;;;;;5030842;28;20041;-69
2022/01/02 08:37:41;;;;;;;14.53;6.20;;;;;;;;;;5020884;28;20057;-69
2022/01/02 08:40:08;;;;;;;15.27;5.53;;;;;;;;;;5029836;28;20041;-69
2022/01/02 08:42:34;;;;;;;15.50;6.20;;;;;;;;;;5019366;28;20049;-69
2022/01/02 08:45:00;;;;;;;16.50;5.23;;;;;;;;;;5040477;28;20040;-69
2022/01/02 08:47:26;;;;;;;13.17;5.60;;;;;;;;;;5035552;28;20057;-69
2022/01/02 08:49:52;;;;;;;13.07;5.67;;;;;;;;;;5047385;28;20062;-69
2022/01/02 08:52:19;;;;;;;10.30;4.83;;;;;;;;;;5050003;28;20087;-69
2022/01/02 08:54:45;;;;;;;17.77;5.30;;;;;;;;;;5042941;28;20503;-69
2022/01/02 08:57:11;;;;;;;14.43;5.47;;;;;;;;;;5029750;28;20100;-69
2022/01/02 08:59:37;;;;;;;13.40;4.93;;;;;;;;;;5042813;28;20503;-69
2022/01/02 09:02:03;;;;;;;10.43;4.60;;;;;;;;;;5032684;28;20099;-69
2022/01/02 09:04:29;;;;;;;9.93;4.17;;;;;;;;;;5034024;28;20087;-69
2022/01/02 09:06:55;;;;;;;11.43;4.90;;;;;;;;;;5038497;28;20073;-69
2022/01/02 09:09:21;;;;;;;9.90;4.27;;;;;;;;;;5031063;28;20076;-69
2022/01/02 09:11:47;;;;;;;14.43;5.23;;;;;;;;;;5030015;28;20052;-69
2022/01/02 09:14:13;;;;;;;13.77;4.80;;;;;;;;;;5029682;28;20049;-69
2022/01/02 09:16:44;;;;;;;13.33;4.60;;;;;;;;;;5030012;28;20116;-69
2022/01/02 09:19:10;;;;;;;11.20;5.00;;;;;;;;;;5042943;28;20057;-69
2022/01/02 09:21:37;;;;;;;8.30;4.40;;;;;;;;;;5026508;28;20041;-69
2022/01/02 09:24:03;;;;;;;14.77;5.87;;;;;;;;;;5031205;28;20041;-69
2022/01/02 09:26:29;;;;;;;14.97;5.03;;;;;;;;;;5041826;28;20478;-70
2022/01/02 09:28:55;;;;;;;15.27;5.57;;;;;;;;;;5031100;28;20111;-69
2022/01/02 09:31:22;;;;;;;13.20;5.37;;;;;;;;;;5030419;28;20045;-70
2022/01/02 09:33:48;;;;;;;13.90;4.93;;;;;;;;;;5030939;28;20045;-69
2022/01/02 09:36:15;;;;;;;13.17;4.97;;;;;;;;;;5030162;28;20048;-69
2022/01/02 09:38:42;;;;;;;10.33;5.30;;;;;;;;;;5029098;28;20405;-69
2022/01/02 09:41:08;;;;;;;13.43;5.23;;;;;;;;;;5044309;28;20095;-70
2022/01/02 09:43:34;;;;;;;12.43;5.23;;;;;;;;;;5040270;28;20049;-70
2022/01/02 09:46:02;;;;;;;9.67;4.97;;;;;;;;;;5040425;28;20041;-69
2022/01/02 09:48:29;;;;;;;8.03;4.37;;;;;;;;;;5035404;28;20124;-70
2022/01/02 09:50:55;;;;;;;13.27;4.93;;;;;;;;;;5030282;28;20092;-70
2022/01/02 09:53:21;;;;;;;12.20;5.10;;;;;;;;;;5028381;28;20077;-69
2022/01/02 09:55:47;;;;;;;10.57;5.30;;;;;;;;;;5028512;28;20049;-69
2022/01/02 09:58:14;;;;;;;10.60;4.87;;;;;;;;;;5028912;28;20483;-69
2022/01/02 10:00:43;;;;;;;11.47;5.03;;;;;;;;;;5030049;28;20049;-70
2022/01/02 10:03:10;;;;;;;11.73;5.90;;;;;;;;;;5031623;28;20459;-70
2022/01/02 10:05:51;;;;;;;8.67;4.80;;;;;;;;;;5047927;28;20488;-70
2022/01/02 10:08:20;;;;;;;9.67;4.77;;;;;;;;;;5048694;28;20045;-70
2022/01/02 10:10:46;;;;;;;10.10;5.10;;;;;;;;;;5045440;28;20088;-70
2022/01/02 10:13:12;;;;;;;9.40;4.43;;;;;;;;;;5038222;28;20095;-70
2022/01/02 10:15:38;;;;;;;14.13;4.60;;;;;;;;;;5046235;28;20039;-72
2022/01/02 10:18:11;;;;;;;8.63;4.07;;;;;;;;;;5048805;28;20569;-70
2022/01/02 10:20:45;;;;;;;13.30;6.60;;;;;;;;;;5038970;28;20053;-70
2022/01/02 10:23:11;;;;;;;8.73;5.00;;;;;;;;;;5047185;28;20151;-70
2022/01/02 10:25:48;;;;;;;7.00;4.30;;;;;;;;;;5047406;28;20134;-70
2022/01/02 10:28:31;;;;;;;9.23;5.10;;;;;;;;;;5040316;28;20099;-70
2022/01/02 10:30:57;;;;;;;11.85;4.45;;;;;;;;;;5020536;28;20463;-70
2022/01/02 10:33:23;;;;;;;10.23;4.33;;;;;;;;;;5043043;28;20072;-70
2022/01/02 10:35:56;;;;;;;14.53;5.27;;;;;;;;;;5039289;28;20435;-71
2022/01/02 10:38:22;;;;;;;9.90;4.00;;;;;;;;;;5028697;28;20464;-71
2022/01/02 10:40:48;;;;;;;10.03;4.70;;;;;;;;;;5028158;28;20084;-70
2022/01/02 10:43:28;;;;;;;8.40;4.30;;;;;;;;;;5030120;28;20050;-71
2022/01/02 10:45:55;;;;;;;10.40;4.73;;;;;;;;;;5017595;28;20045;-71
2022/01/02 10:48:40;;;;;;;10.93;4.97;;;;;;;;;;5035902;28;20111;-71
2022/01/02 10:51:14;;;;;;;13.13;4.60;;;;;;;;;;5019980;28;20048;-71
2022/01/02 10:53:51;;;;;;;11.00;5.07;;;;;;;;;;5037236;28;20051;-71
2022/01/02 10:56:17;;;;;;;6.87;4.00;;;;;;;;;;5011180;28;20407;-71
2022/01/02 10:58:45;;;;;;;7.97;4.13;;;;;;;;;;5028305;28;20401;-71
2022/01/02 11:01:12;;;;;;;10.00;4.70;;;;;;;;;;5027621;28;20061;-72
2022/01/02 11:03:38;;;;;;;10.80;4.77;;;;;;;;;;5028522;28;20043;-72
2022/01/02 11:06:08;;;;;;;10.67;4.43;;;;;;;;;;5031032;28;20084;-72
2022/01/02 11:08:36;;;;;;;13.93;5.47;;;;;;;;;;5028097;28;20049;-72
2022/01/02 11:11:04;;;;;;;11.23;6.17;;;;;;;;;;5028907;28;20688;-71
2022/01/02 11:13:31;;;;;;;12.50;4.47;;;;;;;;;;5027739;28;20144;-71
2022/01/02 11:15:59;;;;;;;13.30;5.30;;;;;;;;;;5043380;28;20041;-72
2022/01/02 11:18:25;;;;;;;13.90;5.00;;;;;;;;;;5039764;28;20051;-72
2022/01/02 11:20:52;;;;;;;13.90;5.20;;;;;;;;;;5027237;28;20054;-72
2022/01/02 11:23:22;;;;;;;15.10;5.27;;;;;;;;;;5026934;28;20057;-71
2022/01/02 11:26:04;;;;;;;13.07;5.30;;;;;;;;;;5027331;28;20104;-72
2022/01/02 11:28:39;;;;;;;12.60;5.50;;;;;;;;;;5043185;28;20100;-72
2022/01/02 11:31:06;;;;;;;12.00;4.90;;;;;;;;;;5027953;28;20099;-72
2022/01/02 11:33:36;;;;;;;11.53;4.77;;;;;;;;;;5046402;28;20525;-72
2022/01/02 11:36:21;;;;;;;12.53;4.77;;;;;;;;;;5042214;28;20041;-72
2022/01/02 11:38:55;;;;;;;15.43;4.13;;;;;;;;;;5034917;28;20091;-72
2022/01/02 11:41:40;;;;;;;11.03;5.77;;;;;;;;;;5029904;28;20049;-72
2022/01/02 11:44:08;;;;;;;15.30;4.70;;;;;;;;;;5036352;28;20407;-72
2022/01/02 11:46:38;;;;;;;14.00;4.80;;;;;;;;;;5038324;28;20572;-72
2022/01/02 11:49:04;;;;;;;16.97;5.60;;;;;;;;;;5026946;28;20045;-72
2022/01/02 11:51:49;;;;;;;10.07;4.20;;;;;;;;;;5032206;28;20483;-72
2022/01/02 11:54:31;;;;;;;13.97;5.03;;;;;;;;;;5031750;28;20133;-72
2022/01/02 11:56:58;;;;;;;19.80;4.50;;;;;;;;;;5049963;28;21019;-73
2022/01/02 11:59:39;;;;;;;10.97;4.60;;;;;;;;;;5033307;28;20047;-72
2022/01/02 12:02:14;;;;;;;13.50;4.67;;;;;;;;;;5021205;28;20434;-73
2022/01/02 12:07:37;;;;;;;14.30;5.17;;;;;;;;;;5035306;28;20042;-72
2022/01/02 12:10:16;;;;;;;16.60;4.43;;;;;;;;;;5038456;28;20159;-72
2022/01/02 12:13:00;;;;;;;14.87;5.23;;;;;;;;;;5022059;28;20094;-72
2022/01/02 12:15:32;;;;;;;10.27;4.40;;;;;;;;;;5034199;28;20080;-72
2022/01/02 12:18:05;;;;;;;14.00;5.90;;;;;;;;;;5038345;28;20053;-73
2022/01/02 12:20:51;;;;;;;13.98;4.45;;;;;;;;;;5035519;28;20099;-72
2022/01/02 12:23:33;;;;;;;14.10;4.80;;;;;;;;;;5034724;28;20543;-72
2022/01/02 12:26:20;;;;;;;14.23;4.47;;;;;;;;;;5037267;28;20044;-72
2022/01/02 12:28:56;;;;;;;10.83;3.50;;;;;;;;;;5046228;28;20042;-72
2022/01/02 12:31:23;;;;;;;11.60;4.80;;;;;;;;;;5033589;28;20049;-72
2022/01/02 12:33:49;;;;;;;15.17;4.13;;;;;;;;;;5036796;28;20086;-72
2022/01/02 12:36:16;;;;;;;10.07;3.40;;;;;;;;;;5032711;28;20049;-72
2022/01/02 12:38:53;;;;;;;10.63;3.57;;;;;;;;;;5038025;28;20047;-72
2022/01/02 12:41:19;;;;;;;13.03;3.57;;;;;;;;;;5045942;28;20052;-72
2022/01/02 12:43:55;;;;;;;14.20;3.10;;;;;;;;;;5031091;28;20060;-72
2022/01/02 12:46:39;;;;;;;9.10;2.60;;;;;;;;;;5034562;28;20325;-72
2022/01/02 12:49:26;;;;;;;11.40;2.77;;;;;;;;;;5041884;28;20175;-72
2022/01/02 12:51:53;;;;;;;8.57;2.40;;;;;;;;;;5026459;28;20057;-72
2022/01/02 12:54:20;;;;;;;11.73;2.77;;;;;;;;;;5027728;28;20076;-72
2022/01/02 12:56:46;;;;;;;13.00;2.70;;;;;;;;;;5030188;28;20098;-72
2022/01/02 12:59:23;;;;;;;11.77;3.10;;;;;;;;;;5029997;28;20041;-72
2022/01/02 13:01:58;;;;;;;14.17;2.43;;;;;;;;;;5021220;28;20049;-72
2022/01/02 13:04:27;;;;;;;16.17;3.23;;;;;;;;;;5038880;28;20037;-72
2022/01/02 13:06:54;;;;;;;11.83;2.93;;;;;;;;;;5046098;28;20049;-72
2022/01/02 13:09:24;;;;;;;10.20;3.00;;;;;;;;;;5039602;28;20393;-75
2022/01/02 13:11:50;;;;;;;11.23;3.13;;;;;;;;;;5029566;28;20107;-72
2022/01/02 13:14:31;;;;;;;9.33;2.77;;;;;;;;;;5035166;28;20049;-72
2022/01/02 13:16:57;;;;;;;12.17;2.60;;;;;;;;;;5038384;28;20084;-72
2022/01/02 13:19:24;;;;;;;12.27;3.40;;;;;;;;;;5029572;28;20602;-71
2022/01/02 13:21:50;;;;;;;18.03;3.50;;;;;;;;;;5042506;28;20081;-72
2022/01/02 13:24:23;;;;;;;12.33;2.97;;;;;;;;;;5035849;28;20045;-71
2022/01/02 13:26:49;;;;;;;;;;;;;;;;;;5048309;28;20041;-72
2022/01/02 13:29:22;;;;;;;25.70;3.60;;;;;;;;;;5042200;28;19921;-71
2022/01/02 13:31:49;;;;;;;12.48;3.15;;;;;;;;;;5022365;28;20042;-72
2022/01/02 13:34:29;;;;;;;15.07;3.50;;;;;;;;;;5028829;28;20049;-71
2022/01/02 13:36:58;;;;;;;13.47;3.10;;;;;;;;;;5030640;28;21072;-71
2022/01/02 13:39:38;;;;;;;15.57;3.10;;;;;;;;;;5043262;28;20071;-71
2022/01/02 13:42:04;;;;;;;21.30;4.83;;;;;;;;;;5036983;28;20045;-71
2022/01/02 13:44:39;;;;;;;15.60;3.47;;;;;;;;;;5027624;28;20069;-71
2022/01/02 13:47:05;;;;;;;20.57;3.87;;;;;;;;;;5011158;28;20128;-71
2022/01/02 13:49:47;;;;;;;17.37;3.87;;;;;;;;;;5028761;28;20053;-71
2022/01/02 13:52:13;;;;;;;21.60;4.17;;;;;;;;;;5027894;28;20140;-72
2022/01/02 13:54:39;;;;;;;18.27;3.77;;;;;;;;;;5026986;28;20503;-71
2022/01/02 13:57:07;;;;;;;18.40;4.27;;;;;;;;;;5027533;28;20045;-71
2022/01/02 13:59:34;;;;;;;21.13;4.47;;;;;;;;;;5028480;28;20389;-71
2022/01/02 14:02:00;;;;;;;12.83;3.00;;;;;;;;;;5036600;28;20040;-71
2022/01/02 14:04:26;;;;;;;14.17;4.37;;;;;;;;;;5041473;28;20060;-71
2022/01/02 14:06:52;;;;;;;15.13;3.40;;;;;;;;;;5032339;28;20076;-71
2022/01/02 14:09:19;;;;;;;18.00;4.57;;;;;;;;;;5029626;28;20134;-71
2022/01/02 14:11:47;;;;;;;23.57;3.80;;;;;;;;;;5027531;28;20045;-71
2022/01/02 14:14:36;;;;;;;18.10;4.40;;;;;;;;;;5028633;28;20103;-70
2022/01/02 14:19:38;;;;;;;18.80;3.97;;;;;;;;;;5029755;28;20138;-70
2022/01/02 14:22:05;;;;;;;23.03;3.93;;;;;;;;;;5028469;28;20052;-70
2022/01/02 14:24:31;;;;;;;13.87;3.47;;;;;;;;;;5028123;28;20053;-71
2022/01/02 14:26:58;;;;;;;22.20;4.13;;;;;;;;;;5028210;28;20041;-70
2022/01/02 14:29:24;;;;;;;25.50;4.77;;;;;;;;;;5028774;28;20136;-70
2022/01/02 14:31:50;;;;;;;18.30;3.37;;;;;;;;;;5028694;28;20060;-70
2022/01/02 14:34:16;;;;;;;9.97;3.63;;;;;;;;;;5029558;28;20518;-70
2022/01/02 14:36:42;;;;;;;17.20;3.47;;;;;;;;;;5029838;28;20045;-70
2022/01/02 14:39:09;;;;;;;22.20;4.07;;;;;;;;;;5027895;28;20853;-70
2022/01/02 14:41:37;;;;;;;16.53;3.93;;;;;;;;;;5028007;28;20092;-70
2022/01/02 14:44:04;;;;;;;17.50;3.30;;;;;;;;;;5027898;28;20052;-70
2022/01/02 14:46:30;;;;;;;22.73;4.17;;;;;;;;;;5029239;28;20049;-70